Alto Garcas, Brazil
Current Conditions -  °F | °C
As of 4:00 PM on Thursday 30 Oct 2014 (Local Time) from SBCY Reporting Station
Scattered Clouds Scattered Clouds  
Wind Chill: 91°   Ceiling: Unl
Heat Index: 95°   Visibility: 6mi
Dew Point: 68°   Wind: 8mph
Humidity: 46%   Direction: 320°NW
Pressure: 29.74"   Gusts: NA
Location:  16.94°S, 53.53°W
Report Text: SBCY 301900Z 32007KT 9999 SCT020 FEW025TCU 33/20 Q1007
Loading
Personal Weather Stations






























Interactive Weather Map
Tropical Storm Tracking
New forecast layout! Learn more

10-Day Weather Forecast

Advertisements
Track Severe Weather on mobile